sensor_id;sensor_type;location;lat;lon;timestamp;P1;durP1;ratioP1;P2;durP2;ratioP2
70761;SDS011;58360;0.000;0.000;2022-10-19T00:02:06;22.17;;;5.90;;
70761;SDS011;58360;0.000;0.000;2022-10-19T00:04:31;15.80;;;5.88;;
70761;SDS011;58360;0.000;0.000;2022-10-19T00:06:57;14.45;;;6.20;;
70761;SDS011;58360;0.000;0.000;2022-10-19T00:09:22;12.88;;;6.00;;
70761;SDS011;58360;0.000;0.000;2022-10-19T00:11:48;20.05;;;6.50;;
70761;SDS011;58360;0.000;0.000;2022-10-19T00:14:19;16.50;;;5.45;;
70761;SDS011;58360;0.000;0.000;2022-10-19T00:16:47;16.90;;;6.38;;
70761;SDS011;58360;0.000;0.000;2022-10-19T00:19:21;17.40;;;5.95;;
70761;SDS011;58360;0.000;0.000;2022-10-19T00:21:48;24.17;;;7.38;;
70761;SDS011;58360;0.000;0.000;2022-10-19T00:24:15;18.60;;;7.05;;
70761;SDS011;58360;0.000;0.000;2022-10-19T00:26:40;17.05;;;6.65;;
70761;SDS011;58360;0.000;0.000;2022-10-19T00:29:07;26.75;;;6.63;;
70761;SDS011;58360;0.000;0.000;2022-10-19T00:31:34;23.10;;;6.63;;
70761;SDS011;58360;0.000;0.000;2022-10-19T00:33:59;19.08;;;7.03;;
70761;SDS011;58360;0.000;0.000;2022-10-19T00:36:29;19.17;;;6.18;;
70761;SDS011;58360;0.000;0.000;2022-10-19T00:38:57;19.02;;;6.43;;
70761;SDS011;58360;0.000;0.000;2022-10-19T00:41:24;25.15;;;6.68;;
70761;SDS011;58360;0.000;0.000;2022-10-19T00:46:27;18.92;;;6.43;;
70761;SDS011;58360;0.000;0.000;2022-10-19T00:48:57;22.92;;;6.53;;
70761;SDS011;58360;0.000;0.000;2022-10-19T00:53:52;10.90;;;5.65;;
70761;SDS011;58360;0.000;0.000;2022-10-19T00:56:20;17.17;;;5.93;;
70761;SDS011;58360;0.000;0.000;2022-10-19T00:58:45;18.83;;;6.18;;
70761;SDS011;58360;0.000;0.000;2022-10-19T01:01:13;20.38;;;6.57;;
70761;SDS011;58360;0.000;0.000;2022-10-19T01:03:41;17.77;;;6.60;;
70761;SDS011;58360;0.000;0.000;2022-10-19T01:06:08;18.25;;;6.68;;
70761;SDS011;58360;0.000;0.000;2022-10-19T01:08:35;22.92;;;6.60;;
70761;SDS011;58360;0.000;0.000;2022-10-19T01:13:49;19.90;;;6.78;;
70761;SDS011;58360;0.000;0.000;2022-10-19T01:21:56;14.40;;;6.28;;
70761;SDS011;58360;0.000;0.000;2022-10-19T01:24:38;15.57;;;5.95;;
70761;SDS011;58360;0.000;0.000;2022-10-19T01:29:40;21.38;;;6.57;;
70761;SDS011;58360;0.000;0.000;2022-10-19T01:32:15;20.13;;;6.50;;
70761;SDS011;58360;0.000;0.000;2022-10-19T01:34:56;23.90;;;7.15;;
70761;SDS011;58360;0.000;0.000;2022-10-19T01:40:12;15.27;;;5.82;;
70761;SDS011;58360;0.000;0.000;2022-10-19T01:43:11;18.05;;;5.93;;
70761;SDS011;58360;0.000;0.000;2022-10-19T01:45:57;18.05;;;5.68;;
70761;SDS011;58360;0.000;0.000;2022-10-19T01:48:29;17.92;;;6.22;;
70761;SDS011;58360;0.000;0.000;2022-10-19T01:51:00;21.30;;;5.80;;
70761;SDS011;58360;0.000;0.000;2022-10-19T01:53:33;23.13;;;6.97;;
70761;SDS011;58360;0.000;0.000;2022-10-19T01:56:04;27.38;;;6.57;;
70761;SDS011;58360;0.000;0.000;2022-10-19T01:58:32;23.77;;;6.05;;
70761;SDS011;58360;0.000;0.000;2022-10-19T02:01:02;18.42;;;6.22;;
70761;SDS011;58360;0.000;0.000;2022-10-19T02:03:30;13.35;;;5.07;;
70761;SDS011;58360;0.000;0.000;2022-10-19T02:05:58;15.52;;;5.65;;
70761;SDS011;58360;0.000;0.000;2022-10-19T02:08:26;22.58;;;6.43;;
70761;SDS011;58360;0.000;0.000;2022-10-19T02:10:55;15.07;;;6.07;;
70761;SDS011;58360;0.000;0.000;2022-10-19T02:13:22;19.17;;;5.60;;
70761;SDS011;58360;0.000;0.000;2022-10-19T02:15:51;17.08;;;6.53;;
70761;SDS011;58360;0.000;0.000;2022-10-19T02:18:23;16.70;;;6.10;;
70761;SDS011;58360;0.000;0.000;2022-10-19T02:20:53;17.60;;;6.45;;
70761;SDS011;58360;0.000;0.000;2022-10-19T02:23:19;15.07;;;7.20;;
70761;SDS011;58360;0.000;0.000;2022-10-19T02:25:47;18.77;;;6.45;;
70761;SDS011;58360;0.000;0.000;2022-10-19T02:28:13;22.55;;;6.80;;
70761;SDS011;58360;0.000;0.000;2022-10-19T02:30:39;18.30;;;7.00;;
70761;SDS011;58360;0.000;0.000;2022-10-19T02:33:06;16.50;;;6.68;;
70761;SDS011;58360;0.000;0.000;2022-10-19T02:35:32;23.38;;;8.23;;
70761;SDS011;58360;0.000;0.000;2022-10-19T02:37:58;35.60;;;7.95;;
70761;SDS011;58360;0.000;0.000;2022-10-19T02:40:26;18.45;;;8.32;;
70761;SDS011;58360;0.000;0.000;2022-10-19T02:42:59;22.92;;;8.38;;
70761;SDS011;58360;0.000;0.000;2022-10-19T02:45:31;24.55;;;8.43;;
70761;SDS011;58360;0.000;0.000;2022-10-19T02:48:03;22.65;;;8.48;;
70761;SDS011;58360;0.000;0.000;2022-10-19T02:50:37;32.58;;;8.48;;
70761;SDS011;58360;0.000;0.000;2022-10-19T02:53:11;22.08;;;8.10;;
70761;SDS011;58360;0.000;0.000;2022-10-19T02:55:37;27.98;;;7.88;;
70761;SDS011;58360;0.000;0.000;2022-10-19T02:58:02;27.23;;;8.02;;
70761;SDS011;58360;0.000;0.000;2022-10-19T03:00:28;22.35;;;8.45;;
70761;SDS011;58360;0.000;0.000;2022-10-19T03:02:54;30.73;;;8.60;;
70761;SDS011;58360;0.000;0.000;2022-10-19T03:05:19;28.50;;;8.50;;
70761;SDS011;58360;0.000;0.000;2022-10-19T03:07:45;24.27;;;8.25;;
70761;SDS011;58360;0.000;0.000;2022-10-19T03:10:10;21.02;;;7.55;;
70761;SDS011;58360;0.000;0.000;2022-10-19T03:12:36;27.23;;;7.75;;
70761;SDS011;58360;0.000;0.000;2022-10-19T03:15:02;19.73;;;7.88;;
70761;SDS011;58360;0.000;0.000;2022-10-19T03:17:28;26.38;;;7.22;;
70761;SDS011;58360;0.000;0.000;2022-10-19T03:19:54;23.63;;;7.30;;
70761;SDS011;58360;0.000;0.000;2022-10-19T03:22:19;22.75;;;7.30;;
70761;SDS011;58360;0.000;0.000;2022-10-19T03:24:45;22.67;;;7.63;;
70761;SDS011;58360;0.000;0.000;2022-10-19T03:27:11;29.88;;;7.97;;
70761;SDS011;58360;0.000;0.000;2022-10-19T03:29:36;18.80;;;8.07;;
70761;SDS011;58360;0.000;0.000;2022-10-19T03:32:02;19.48;;;7.95;;
70761;SDS011;58360;0.000;0.000;2022-10-19T03:34:29;20.05;;;7.22;;
70761;SDS011;58360;0.000;0.000;2022-10-19T03:36:54;26.45;;;7.85;;
70761;SDS011;58360;0.000;0.000;2022-10-19T03:39:20;22.88;;;7.95;;
70761;SDS011;58360;0.000;0.000;2022-10-19T03:41:46;29.55;;;8.30;;
70761;SDS011;58360;0.000;0.000;2022-10-19T03:44:12;22.08;;;7.65;;
70761;SDS011;58360;0.000;0.000;2022-10-19T03:46:38;26.35;;;8.25;;
70761;SDS011;58360;0.000;0.000;2022-10-19T03:49:04;23.65;;;8.15;;
70761;SDS011;58360;0.000;0.000;2022-10-19T03:51:30;24.73;;;8.07;;
70761;SDS011;58360;0.000;0.000;2022-10-19T03:53:58;23.17;;;7.75;;
70761;SDS011;58360;0.000;0.000;2022-10-19T03:56:26;19.33;;;6.90;;
70761;SDS011;58360;0.000;0.000;2022-10-19T03:58:54;29.20;;;8.07;;
70761;SDS011;58360;0.000;0.000;2022-10-19T04:01:22;23.23;;;9.35;;
70761;SDS011;58360;0.000;0.000;2022-10-19T04:03:53;16.67;;;7.55;;
70761;SDS011;58360;0.000;0.000;2022-10-19T04:06:21;24.20;;;8.20;;
70761;SDS011;58360;0.000;0.000;2022-10-19T04:08:50;20.05;;;7.60;;
70761;SDS011;58360;0.000;0.000;2022-10-19T04:11:16;20.88;;;7.60;;
70761;SDS011;58360;0.000;0.000;2022-10-19T04:13:46;25.63;;;8.13;;
70761;SDS011;58360;0.000;0.000;2022-10-19T04:16:13;19.92;;;8.65;;
70761;SDS011;58360;0.000;0.000;2022-10-19T04:18:39;21.27;;;8.52;;
70761;SDS011;58360;0.000;0.000;2022-10-19T04:21:04;17.45;;;7.80;;
70761;SDS011;58360;0.000;0.000;2022-10-19T04:23:34;21.92;;;8.27;;
70761;SDS011;58360;0.000;0.000;2022-10-19T04:26:05;24.70;;;8.75;;
70761;SDS011;58360;0.000;0.000;2022-10-19T04:28:32;18.23;;;8.63;;
70761;SDS011;58360;0.000;0.000;2022-10-19T04:31:02;23.08;;;8.60;;
70761;SDS011;58360;0.000;0.000;2022-10-19T04:33:28;22.52;;;9.55;;
70761;SDS011;58360;0.000;0.000;2022-10-19T04:35:57;16.50;;;8.68;;
70761;SDS011;58360;0.000;0.000;2022-10-19T04:38:23;22.58;;;9.13;;
70761;SDS011;58360;0.000;0.000;2022-10-19T04:40:49;21.52;;;9.55;;
70761;SDS011;58360;0.000;0.000;2022-10-19T04:43:15;28.83;;;9.68;;
70761;SDS011;58360;0.000;0.000;2022-10-19T04:45:41;25.58;;;10.40;;
70761;SDS011;58360;0.000;0.000;2022-10-19T04:48:06;32.88;;;10.52;;
70761;SDS011;58360;0.000;0.000;2022-10-19T04:50:32;28.10;;;10.15;;
70761;SDS011;58360;0.000;0.000;2022-10-19T04:52:57;25.70;;;10.95;;
70761;SDS011;58360;0.000;0.000;2022-10-19T04:55:23;32.67;;;10.80;;
70761;SDS011;58360;0.000;0.000;2022-10-19T04:57:49;29.98;;;11.27;;
70761;SDS011;58360;0.000;0.000;2022-10-19T05:00:14;29.58;;;10.95;;
70761;SDS011;58360;0.000;0.000;2022-10-19T05:02:44;28.85;;;10.27;;
70761;SDS011;58360;0.000;0.000;2022-10-19T05:05:11;28.88;;;11.55;;
70761;SDS011;58360;0.000;0.000;2022-10-19T05:07:37;22.70;;;10.60;;
70761;SDS011;58360;0.000;0.000;2022-10-19T05:10:03;22.65;;;11.32;;
70761;SDS011;58360;0.000;0.000;2022-10-19T05:12:29;33.20;;;10.88;;
70761;SDS011;58360;0.000;0.000;2022-10-19T05:14:55;26.77;;;11.32;;
70761;SDS011;58360;0.000;0.000;2022-10-19T05:17:20;34.42;;;11.82;;
70761;SDS011;58360;0.000;0.000;2022-10-19T05:19:46;34.90;;;11.95;;
70761;SDS011;58360;0.000;0.000;2022-10-19T05:22:11;26.25;;;11.85;;
70761;SDS011;58360;0.000;0.000;2022-10-19T05:24:37;24.67;;;12.00;;
70761;SDS011;58360;0.000;0.000;2022-10-19T05:27:03;21.95;;;11.02;;
70761;SDS011;58360;0.000;0.000;2022-10-19T05:29:28;31.98;;;11.25;;
70761;SDS011;58360;0.000;0.000;2022-10-19T05:31:54;38.85;;;12.55;;
70761;SDS011;58360;0.000;0.000;2022-10-19T05:34:20;28.83;;;12.77;;
70761;SDS011;58360;0.000;0.000;2022-10-19T05:36:45;38.47;;;13.90;;
70761;SDS011;58360;0.000;0.000;2022-10-19T05:39:12;33.17;;;13.00;;
70761;SDS011;58360;0.000;0.000;2022-10-19T05:41:41;26.48;;;13.10;;
70761;SDS011;58360;0.000;0.000;2022-10-19T05:44:09;37.97;;;13.25;;
70761;SDS011;58360;0.000;0.000;2022-10-19T05:46:40;26.00;;;13.13;;
70761;SDS011;58360;0.000;0.000;2022-10-19T05:49:06;37.90;;;14.00;;
70761;SDS011;58360;0.000;0.000;2022-10-19T05:51:33;34.47;;;13.57;;
70761;SDS011;58360;0.000;0.000;2022-10-19T05:53:59;32.78;;;13.25;;
70761;SDS011;58360;0.000;0.000;2022-10-19T05:56:25;30.98;;;13.90;;
70761;SDS011;58360;0.000;0.000;2022-10-19T05:58:56;31.73;;;13.20;;
70761;SDS011;58360;0.000;0.000;2022-10-19T06:01:24;34.97;;;14.30;;
70761;SDS011;58360;0.000;0.000;2022-10-19T06:03:51;30.02;;;14.05;;
70761;SDS011;58360;0.000;0.000;2022-10-19T06:06:18;26.60;;;14.40;;
70761;SDS011;58360;0.000;0.000;2022-10-19T06:08:44;43.38;;;15.63;;
70761;SDS011;58360;0.000;0.000;2022-10-19T06:11:11;28.02;;;13.80;;
70761;SDS011;58360;0.000;0.000;2022-10-19T06:13:39;30.80;;;15.35;;
70761;SDS011;58360;0.000;0.000;2022-10-19T06:16:06;33.85;;;14.55;;
70761;SDS011;58360;0.000;0.000;2022-10-19T06:18:34;29.92;;;15.18;;
70761;SDS011;58360;0.000;0.000;2022-10-19T06:21:03;31.85;;;14.98;;
70761;SDS011;58360;0.000;0.000;2022-10-19T06:23:31;31.05;;;15.30;;
70761;SDS011;58360;0.000;0.000;2022-10-19T06:26:00;33.25;;;15.00;;
70761;SDS011;58360;0.000;0.000;2022-10-19T06:28:26;39.45;;;15.40;;
70761;SDS011;58360;0.000;0.000;2022-10-19T06:30:52;34.70;;;14.05;;
70761;SDS011;58360;0.000;0.000;2022-10-19T06:33:18;39.80;;;13.93;;
70761;SDS011;58360;0.000;0.000;2022-10-19T06:35:43;32.58;;;13.40;;
70761;SDS011;58360;0.000;0.000;2022-10-19T06:38:09;33.60;;;13.52;;
70761;SDS011;58360;0.000;0.000;2022-10-19T06:40:37;31.13;;;13.38;;
70761;SDS011;58360;0.000;0.000;2022-10-19T06:43:03;25.92;;;13.15;;
70761;SDS011;58360;0.000;0.000;2022-10-19T06:45:29;30.02;;;13.57;;
70761;SDS011;58360;0.000;0.000;2022-10-19T06:47:54;40.38;;;13.48;;
70761;SDS011;58360;0.000;0.000;2022-10-19T06:50:20;30.35;;;12.75;;
70761;SDS011;58360;0.000;0.000;2022-10-19T06:52:46;28.83;;;13.23;;
70761;SDS011;58360;0.000;0.000;2022-10-19T06:55:12;29.08;;;12.35;;
70761;SDS011;58360;0.000;0.000;2022-10-19T06:57:38;24.80;;;12.27;;
70761;SDS011;58360;0.000;0.000;2022-10-19T07:00:04;22.60;;;12.57;;
70761;SDS011;58360;0.000;0.000;2022-10-19T07:02:31;33.90;;;12.15;;
70761;SDS011;58360;0.000;0.000;2022-10-19T07:04:57;31.75;;;12.73;;
70761;SDS011;58360;0.000;0.000;2022-10-19T07:07:22;28.15;;;11.55;;
70761;SDS011;58360;0.000;0.000;2022-10-19T07:09:48;31.73;;;11.93;;
70761;SDS011;58360;0.000;0.000;2022-10-19T07:12:14;22.33;;;11.68;;
70761;SDS011;58360;0.000;0.000;2022-10-19T07:14:39;29.10;;;11.95;;
70761;SDS011;58360;0.000;0.000;2022-10-19T07:17:05;28.58;;;12.02;;
70761;SDS011;58360;0.000;0.000;2022-10-19T07:19:31;32.15;;;12.75;;
70761;SDS011;58360;0.000;0.000;2022-10-19T07:21:57;27.63;;;11.65;;
70761;SDS011;58360;0.000;0.000;2022-10-19T07:24:23;30.40;;;11.52;;
70761;SDS011;58360;0.000;0.000;2022-10-19T07:26:49;26.08;;;11.30;;
70761;SDS011;58360;0.000;0.000;2022-10-19T07:29:15;25.27;;;10.35;;
70761;SDS011;58360;0.000;0.000;2022-10-19T07:31:40;25.05;;;11.13;;
70761;SDS011;58360;0.000;0.000;2022-10-19T07:34:09;28.55;;;12.25;;
70761;SDS011;58360;0.000;0.000;2022-10-19T07:36:37;23.13;;;10.02;;
70761;SDS011;58360;0.000;0.000;2022-10-19T07:39:04;25.50;;;11.63;;
70761;SDS011;58360;0.000;0.000;2022-10-19T07:41:31;21.90;;;10.55;;
70761;SDS011;58360;0.000;0.000;2022-10-19T07:43:58;29.48;;;11.13;;
70761;SDS011;58360;0.000;0.000;2022-10-19T07:46:26;19.60;;;9.60;;
70761;SDS011;58360;0.000;0.000;2022-10-19T07:48:53;23.83;;;9.95;;
70761;SDS011;58360;0.000;0.000;2022-10-19T07:51:20;22.95;;;9.77;;
70761;SDS011;58360;0.000;0.000;2022-10-19T07:53:46;19.73;;;10.02;;
70761;SDS011;58360;0.000;0.000;2022-10-19T07:56:17;31.08;;;12.40;;
70761;SDS011;58360;0.000;0.000;2022-10-19T07:58:44;24.65;;;9.43;;
70761;SDS011;58360;0.000;0.000;2022-10-19T08:01:13;22.77;;;9.25;;
70761;SDS011;58360;0.000;0.000;2022-10-19T08:03:47;24.73;;;8.65;;
70761;SDS011;58360;0.000;0.000;2022-10-19T08:06:14;29.45;;;8.55;;
70761;SDS011;58360;0.000;0.000;2022-10-19T08:08:41;17.20;;;7.35;;
70761;SDS011;58360;0.000;0.000;2022-10-19T08:11:12;23.35;;;7.88;;
70761;SDS011;58360;0.000;0.000;2022-10-19T08:13:39;18.77;;;7.60;;
70761;SDS011;58360;0.000;0.000;2022-10-19T08:16:05;20.23;;;7.50;;
70761;SDS011;58360;0.000;0.000;2022-10-19T08:18:58;19.23;;;7.43;;
70761;SDS011;58360;0.000;0.000;2022-10-19T08:21:26;23.05;;;7.68;;
70761;SDS011;58360;0.000;0.000;2022-10-19T08:23:52;15.52;;;6.95;;
70761;SDS011;58360;0.000;0.000;2022-10-19T08:26:18;18.60;;;8.07;;
70761;SDS011;58360;0.000;0.000;2022-10-19T08:28:44;18.05;;;6.90;;
70761;SDS011;58360;0.000;0.000;2022-10-19T08:31:14;23.77;;;7.30;;
70761;SDS011;58360;0.000;0.000;2022-10-19T08:33:41;19.52;;;6.63;;
70761;SDS011;58360;0.000;0.000;2022-10-19T08:36:08;16.85;;;6.35;;
70761;SDS011;58360;0.000;0.000;2022-10-19T08:38:36;23.80;;;6.85;;
70761;SDS011;58360;0.000;0.000;2022-10-19T08:41:04;25.00;;;6.82;;
70761;SDS011;58360;0.000;0.000;2022-10-19T08:43:37;20.48;;;6.38;;
70761;SDS011;58360;0.000;0.000;2022-10-19T08:46:16;13.82;;;6.43;;
70761;SDS011;58360;0.000;0.000;2022-10-19T08:49:02;18.88;;;6.60;;
70761;SDS011;58360;0.000;0.000;2022-10-19T08:51:30;19.75;;;6.80;;
70761;SDS011;58360;0.000;0.000;2022-10-19T08:54:01;16.80;;;5.65;;
70761;SDS011;58360;0.000;0.000;2022-10-19T08:56:37;23.42;;;6.05;;
70761;SDS011;58360;0.000;0.000;2022-10-19T08:59:33;25.85;;;6.05;;
70761;SDS011;58360;0.000;0.000;2022-10-19T09:01:55;17.55;;;5.88;;
70761;SDS011;58360;0.000;0.000;2022-10-19T09:15:06;16.52;;;6.10;;
70761;SDS011;58360;0.000;0.000;2022-10-19T09:17:36;18.58;;;6.15;;
70761;SDS011;58360;0.000;0.000;2022-10-19T09:20:13;17.40;;;5.07;;
70761;SDS011;58360;0.000;0.000;2022-10-19T09:22:44;14.68;;;5.20;;
70761;SDS011;58360;0.000;0.000;2022-10-19T09:25:17;16.42;;;5.20;;
70761;SDS011;58360;0.000;0.000;2022-10-19T09:27:46;17.80;;;6.57;;
70761;SDS011;58360;0.000;0.000;2022-10-19T09:30:20;16.98;;;5.97;;
70761;SDS011;58360;0.000;0.000;2022-10-19T09:32:48;16.17;;;5.60;;
70761;SDS011;58360;0.000;0.000;2022-10-19T09:35:32;22.17;;;5.13;;
70761;SDS011;58360;0.000;0.000;2022-10-19T09:38:03;16.08;;;5.13;;
70761;SDS011;58360;0.000;0.000;2022-10-19T09:40:31;20.70;;;5.88;;
70761;SDS011;58360;0.000;0.000;2022-10-19T09:42:58;18.42;;;5.13;;
70761;SDS011;58360;0.000;0.000;2022-10-19T09:45:38;17.23;;;4.88;;
70761;SDS011;58360;0.000;0.000;2022-10-19T09:48:11;17.60;;;5.00;;
70761;SDS011;58360;0.000;0.000;2022-10-19T09:50:41;16.17;;;4.72;;
70761;SDS011;58360;0.000;0.000;2022-10-19T09:53:14;15.60;;;5.40;;
70761;SDS011;58360;0.000;0.000;2022-10-19T09:55:44;13.82;;;5.22;;
70761;SDS011;58360;0.000;0.000;2022-10-19T09:58:16;17.23;;;5.50;;
70761;SDS011;58360;0.000;0.000;2022-10-19T10:00:52;12.15;;;5.25;;
70761;SDS011;58360;0.000;0.000;2022-10-19T10:08:32;15.38;;;4.85;;
70761;SDS011;58360;0.000;0.000;2022-10-19T10:13:39;17.08;;;5.68;;
70761;SDS011;58360;0.000;0.000;2022-10-19T10:16:10;17.92;;;5.25;;
70761;SDS011;58360;0.000;0.000;2022-10-19T10:18:58;15.60;;;5.03;;
70761;SDS011;58360;0.000;0.000;2022-10-19T10:21:28;16.33;;;5.00;;
70761;SDS011;58360;0.000;0.000;2022-10-19T10:24:04;20.70;;;4.40;;
70761;SDS011;58360;0.000;0.000;2022-10-19T10:26:37;18.05;;;4.90;;
70761;SDS011;58360;0.000;0.000;2022-10-19T10:29:21;16.48;;;4.25;;
70761;SDS011;58360;0.000;0.000;2022-10-19T10:34:44;12.23;;;4.77;;
70761;SDS011;58360;0.000;0.000;2022-10-19T10:40:04;17.02;;;5.32;;
70761;SDS011;58360;0.000;0.000;2022-10-19T10:42:42;14.30;;;4.70;;
70761;SDS011;58360;0.000;0.000;2022-10-19T10:45:23;13.47;;;5.00;;
70761;SDS011;58360;0.000;0.000;2022-10-19T10:47:49;16.75;;;5.38;;
70761;SDS011;58360;0.000;0.000;2022-10-19T10:52:56;19.55;;;5.20;;
70761;SDS011;58360;0.000;0.000;2022-10-19T10:55:24;12.82;;;5.25;;
70761;SDS011;58360;0.000;0.000;2022-10-19T10:57:50;16.33;;;5.32;;
70761;SDS011;58360;0.000;0.000;2022-10-19T11:00:22;21.58;;;5.40;;
70761;SDS011;58360;0.000;0.000;2022-10-19T11:06:00;15.02;;;5.18;;
70761;SDS011;58360;0.000;0.000;2022-10-19T11:11:14;17.20;;;4.97;;
70761;SDS011;58360;0.000;0.000;2022-10-19T11:13:47;16.63;;;5.10;;
70761;SDS011;58360;0.000;0.000;2022-10-19T11:16:36;15.35;;;5.38;;
70761;SDS011;58360;0.000;0.000;2022-10-19T11:19:14;16.38;;;4.95;;
70761;SDS011;58360;0.000;0.000;2022-10-19T11:21:57;16.10;;;4.72;;
70761;SDS011;58360;0.000;0.000;2022-10-19T11:24:51;16.80;;;5.45;;
70761;SDS011;58360;0.000;0.000;2022-10-19T11:35:49;14.05;;;4.70;;
70761;SDS011;58360;0.000;0.000;2022-10-19T11:40:58;12.70;;;5.55;;
70761;SDS011;58360;0.000;0.000;2022-10-19T11:49:10;11.43;;;5.15;;
70761;SDS011;58360;0.000;0.000;2022-10-19T11:52:00;21.55;;;5.78;;
70761;SDS011;58360;0.000;0.000;2022-10-19T11:54:41;14.90;;;7.10;;
70761;SDS011;58360;0.000;0.000;2022-10-19T11:57:14;12.32;;;6.18;;
70761;SDS011;58360;0.000;0.000;2022-10-19T12:00:04;19.10;;;5.65;;
70761;SDS011;58360;0.000;0.000;2022-10-19T12:05:32;16.10;;;6.55;;
70761;SDS011;58360;0.000;0.000;2022-10-19T12:14:02;18.17;;;5.57;;
70761;SDS011;58360;0.000;0.000;2022-10-19T12:16:34;16.73;;;5.65;;
70761;SDS011;58360;0.000;0.000;2022-10-19T12:19:02;22.48;;;5.25;;
70761;SDS011;58360;0.000;0.000;2022-10-19T12:21:34;17.27;;;5.82;;
70761;SDS011;58360;0.000;0.000;2022-10-19T12:24:02;15.07;;;6.20;;
70761;SDS011;58360;0.000;0.000;2022-10-19T12:26:34;13.63;;;5.80;;
70761;SDS011;58360;0.000;0.000;2022-10-19T12:29:03;14.13;;;5.63;;
70761;SDS011;58360;0.000;0.000;2022-10-19T12:31:36;17.88;;;5.82;;
70761;SDS011;58360;0.000;0.000;2022-10-19T12:39:55;15.38;;;5.45;;
70761;SDS011;58360;0.000;0.000;2022-10-19T12:43:07;14.43;;;5.65;;
70761;SDS011;58360;0.000;0.000;2022-10-19T12:45:39;13.48;;;6.35;;
70761;SDS011;58360;0.000;0.000;2022-10-19T13:01:06;14.82;;;5.88;;
70761;SDS011;58360;0.000;0.000;2022-10-19T13:03:37;16.67;;;5.53;;
70761;SDS011;58360;0.000;0.000;2022-10-19T13:06:17;17.55;;;5.63;;
70761;SDS011;58360;0.000;0.000;2022-10-19T13:11:18;16.88;;;6.07;;
70761;SDS011;58360;0.000;0.000;2022-10-19T13:21:45;15.63;;;6.50;;
70761;SDS011;58360;0.000;0.000;2022-10-19T13:24:24;13.15;;;6.15;;
70761;SDS011;58360;0.000;0.000;2022-10-19T13:29:27;11.57;;;5.35;;
70761;SDS011;58360;0.000;0.000;2022-10-19T13:32:29;16.95;;;6.78;;
70761;SDS011;58360;0.000;0.000;2022-10-19T13:37:43;18.17;;;7.75;;
70761;SDS011;58360;0.000;0.000;2022-10-19T13:40:19;13.68;;;6.47;;
70761;SDS011;58360;0.000;0.000;2022-10-19T13:42:46;19.80;;;6.97;;
70761;SDS011;58360;0.000;0.000;2022-10-19T13:45:22;16.83;;;6.78;;
70761;SDS011;58360;0.000;0.000;2022-10-19T13:47:53;19.08;;;6.95;;
70761;SDS011;58360;0.000;0.000;2022-10-19T13:55:41;14.98;;;6.10;;
70761;SDS011;58360;0.000;0.000;2022-10-19T14:06:52;14.75;;;6.65;;
70761;SDS011;58360;0.000;0.000;2022-10-19T14:12:23;16.42;;;6.57;;
70761;SDS011;58360;0.000;0.000;2022-10-19T14:17:20;13.23;;;5.97;;
70761;SDS011;58360;0.000;0.000;2022-10-19T14:19:56;13.88;;;6.43;;
70761;SDS011;58360;0.000;0.000;2022-10-19T14:22:30;12.63;;;6.10;;
70761;SDS011;58360;0.000;0.000;2022-10-19T14:27:49;16.52;;;6.65;;
70761;SDS011;58360;0.000;0.000;2022-10-19T14:30:21;17.13;;;6.22;;
70761;SDS011;58360;0.000;0.000;2022-10-19T14:32:47;18.13;;;6.85;;
70761;SDS011;58360;0.000;0.000;2022-10-19T14:35:18;16.83;;;6.68;;
70761;SDS011;58360;0.000;0.000;2022-10-19T14:37:51;16.85;;;6.65;;
70761;SDS011;58360;0.000;0.000;2022-10-19T14:42:48;15.07;;;6.57;;
70761;SDS011;58360;0.000;0.000;2022-10-19T14:45:56;15.65;;;6.38;;
70761;SDS011;58360;0.000;0.000;2022-10-19T14:48:16;13.73;;;6.20;;
70761;SDS011;58360;0.000;0.000;2022-10-19T14:50:46;14.10;;;6.18;;
70761;SDS011;58360;0.000;0.000;2022-10-19T14:56:02;22.20;;;6.75;;
70761;SDS011;58360;0.000;0.000;2022-10-19T14:58:44;16.05;;;6.47;;
70761;SDS011;58360;0.000;0.000;2022-10-19T15:01:19;16.05;;;6.15;;
70761;SDS011;58360;0.000;0.000;2022-10-19T15:03:45;20.77;;;6.40;;
70761;SDS011;58360;0.000;0.000;2022-10-19T15:06:17;14.57;;;6.35;;
70761;SDS011;58360;0.000;0.000;2022-10-19T15:09:03;14.20;;;6.20;;
70761;SDS011;58360;0.000;0.000;2022-10-19T15:11:37;16.63;;;6.28;;
70761;SDS011;58360;0.000;0.000;2022-10-19T15:14:05;18.48;;;6.80;;
70761;SDS011;58360;0.000;0.000;2022-10-19T15:16:50;17.77;;;6.15;;
70761;SDS011;58360;0.000;0.000;2022-10-19T15:21:43;15.82;;;6.63;;
70761;SDS011;58360;0.000;0.000;2022-10-19T15:24:23;16.33;;;6.85;;
70761;SDS011;58360;0.000;0.000;2022-10-19T15:26:51;15.25;;;6.47;;
70761;SDS011;58360;0.000;0.000;2022-10-19T15:29:22;17.35;;;6.57;;
70761;SDS011;58360;0.000;0.000;2022-10-19T15:31:53;14.80;;;5.82;;
70761;SDS011;58360;0.000;0.000;2022-10-19T15:34:23;20.77;;;6.43;;
70761;SDS011;58360;0.000;0.000;2022-10-19T15:36:58;17.15;;;6.18;;
70761;SDS011;58360;0.000;0.000;2022-10-19T15:39:31;14.65;;;6.32;;
70761;SDS011;58360;0.000;0.000;2022-10-19T15:44:46;18.13;;;6.40;;
70761;SDS011;58360;0.000;0.000;2022-10-19T15:52:15;14.98;;;6.53;;
70761;SDS011;58360;0.000;0.000;2022-10-19T15:54:50;16.83;;;6.03;;
70761;SDS011;58360;0.000;0.000;2022-10-19T16:00:12;24.08;;;6.65;;
70761;SDS011;58360;0.000;0.000;2022-10-19T16:02:40;16.45;;;6.30;;
70761;SDS011;58360;0.000;0.000;2022-10-19T16:05:05;15.63;;;6.22;;
70761;SDS011;58360;0.000;0.000;2022-10-19T16:07:32;16.60;;;6.32;;
70761;SDS011;58360;0.000;0.000;2022-10-19T16:10:00;19.08;;;7.20;;
70761;SDS011;58360;0.000;0.000;2022-10-19T16:15:04;21.25;;;7.40;;
70761;SDS011;58360;0.000;0.000;2022-10-19T16:17:30;20.13;;;7.78;;
70761;SDS011;58360;0.000;0.000;2022-10-19T16:19:56;15.18;;;7.53;;
70761;SDS011;58360;0.000;0.000;2022-10-19T16:22:22;14.27;;;6.68;;
70761;SDS011;58360;0.000;0.000;2022-10-19T16:24:48;15.55;;;7.18;;
70761;SDS011;58360;0.000;0.000;2022-10-19T16:27:13;17.95;;;7.68;;
70761;SDS011;58360;0.000;0.000;2022-10-19T16:29:40;18.23;;;7.63;;
70761;SDS011;58360;0.000;0.000;2022-10-19T16:32:07;18.92;;;7.60;;
70761;SDS011;58360;0.000;0.000;2022-10-19T16:34:33;16.60;;;7.85;;
70761;SDS011;58360;0.000;0.000;2022-10-19T16:36:59;21.45;;;8.13;;
70761;SDS011;58360;0.000;0.000;2022-10-19T16:39:25;17.40;;;8.15;;
70761;SDS011;58360;0.000;0.000;2022-10-19T16:41:50;18.20;;;8.70;;
70761;SDS011;58360;0.000;0.000;2022-10-19T16:44:16;17.08;;;8.18;;
70761;SDS011;58360;0.000;0.000;2022-10-19T16:46:42;22.23;;;9.38;;
70761;SDS011;58360;0.000;0.000;2022-10-19T16:49:07;20.02;;;8.95;;
70761;SDS011;58360;0.000;0.000;2022-10-19T16:54:00;17.42;;;8.70;;
70761;SDS011;58360;0.000;0.000;2022-10-19T16:56:28;18.85;;;8.52;;
70761;SDS011;58360;0.000;0.000;2022-10-19T16:58:55;19.88;;;9.95;;
70761;SDS011;58360;0.000;0.000;2022-10-19T17:01:24;18.10;;;9.38;;
70761;SDS011;58360;0.000;0.000;2022-10-19T17:03:50;21.80;;;10.40;;
70761;SDS011;58360;0.000;0.000;2022-10-19T17:06:17;21.70;;;9.80;;
70761;SDS011;58360;0.000;0.000;2022-10-19T17:08:43;23.25;;;10.65;;
70761;SDS011;58360;0.000;0.000;2022-10-19T17:11:11;21.70;;;10.90;;
70761;SDS011;58360;0.000;0.000;2022-10-19T17:13:49;26.67;;;11.40;;
70761;SDS011;58360;0.000;0.000;2022-10-19T17:16:16;22.35;;;10.85;;
70761;SDS011;58360;0.000;0.000;2022-10-19T17:18:43;22.25;;;10.48;;
70761;SDS011;58360;0.000;0.000;2022-10-19T17:21:19;24.52;;;10.10;;
70761;SDS011;58360;0.000;0.000;2022-10-19T17:23:46;20.23;;;10.15;;
70761;SDS011;58360;0.000;0.000;2022-10-19T17:26:15;24.52;;;11.25;;
70761;SDS011;58360;0.000;0.000;2022-10-19T17:28:41;20.92;;;10.88;;
70761;SDS011;58360;0.000;0.000;2022-10-19T17:31:08;24.73;;;10.15;;
70761;SDS011;58360;0.000;0.000;2022-10-19T17:33:38;20.77;;;10.93;;
70761;SDS011;58360;0.000;0.000;2022-10-19T17:36:09;21.40;;;10.88;;
70761;SDS011;58360;0.000;0.000;2022-10-19T17:38:37;19.52;;;11.05;;